Startpagina
METAR-TAF:

METAR-TAF

Vliegvelden :

Río Hato, Panama

breedte: 08-22-33N, lengte: 080-07-40W, hoogte: 32 m

Actueel weer

Dit bericht is 5 uur en het 11 minuten geleden gemaakt, om 03:00 UTC
Wind 6 kt uit het noordnoordwesten
Temperatuur 25°C
Vochtigheid 89%
Druk 1012 hPa
Zicht 10 km of meer
Weinig wolken op 3000 ft

METAR: MPSM 210300Z 34006KT(E) 9999 FEW030 25/23 Q1012

Tijdstip: 03:11 (08:11 UTC)

Verwachting

Dit bericht is 9 uur en het 11 minuten geleden gemaakt, om 23:00 UTC
Verwachting geldig van 21 om 00 UTC tot 22 om 06 UTC
Wind 3 kt uit het zuidzuidwesten
Zicht 10 km of meer
Verspreide wolken op 2000 ft
Kans 30% :
Tijdelijke
van 21 om 20 UTC tot 21 om 22 UTC
Zicht: 7000 m
Verspreide wolken op 1600 ft, Cumulonimbus.
Verspreide wolken op 9000 ft
regenbuien

TAF: MPSM 202300Z 2100/2206 20003KT 9999 SCT020 PROB30 TEMPO 2120/2122 7000 SHRA SCT016CB SCT090

Waarnemingen en weersverwachtingen van meer dan 4000 vliegvelden (METAR en TAF).

De beschikbare stations zijn de gele en rode punten op de kaart.

Ga met uw muis naar het station om de naam te zien.

Klik dan om waarnemingen en weersverwachtingen te zien.

kaart wijzigen: klik op de groene knoppen met een zwart kruis om in te zoomen, op de groene knop met een streepje om uit te zoomen of op de groene pijlen voor aangrenzende kaarten.


METAR-TAF: